sensor_id;sensor_type;location;lat;lon;timestamp;P1;durP1;ratioP1;P2;durP2;ratioP2
36833;SDS011;48003;52.084;5.224;2023-04-28T00:01:32;8.31;;;5.6;;
36833;SDS011;48003;52.084;5.224;2023-04-28T00:03:09;8.1;;;5.5;;
36833;SDS011;48003;52.084;5.224;2023-04-28T00:04:45;9.9;;;5.8;;
36833;SDS011;48003;52.084;5.224;2023-04-28T00:06:21;7.7;;;5.5;;
36833;SDS011;48003;52.084;5.224;2023-04-28T00:09:33;9.9;;;5.8;;
36833;SDS011;48003;52.084;5.224;2023-04-28T00:11:11;8.9;;;5.5;;
36833;SDS011;48003;52.084;5.224;2023-04-28T00:12:47;7.3;;;5.4;;
36833;SDS011;48003;52.084;5.224;2023-04-28T00:16:00;9.0;;;5.7;;
36833;SDS011;48003;52.084;5.224;2023-04-28T00:17:36;7.4;;;5.7;;
36833;SDS011;48003;52.084;5.224;2023-04-28T00:19:12;8.31;;;5.5;;
36833;SDS011;48003;52.084;5.224;2023-04-28T00:22:24;9.9;;;5.3;;
36833;SDS011;48003;52.084;5.224;2023-04-28T00:24:00;8.71;;;5.9;;
36833;SDS011;48003;52.084;5.224;2023-04-28T00:25:36;7.2;;;5.2;;
36833;SDS011;48003;52.084;5.224;2023-04-28T00:28:48;7.2;;;5.2;;
36833;SDS011;48003;52.084;5.224;2023-04-28T00:30:25;9.5;;;5.4;;
36833;SDS011;48003;52.084;5.224;2023-04-28T00:32:02;7.8;;;5.2;;
36833;SDS011;48003;52.084;5.224;2023-04-28T00:33:38;8.31;;;5.5;;
36833;SDS011;48003;52.084;5.224;2023-04-28T00:36:51;10.3;;;5.6;;
36833;SDS011;48003;52.084;5.224;2023-04-28T00:38:27;10.5;;;5.7;;
36833;SDS011;48003;52.084;5.224;2023-04-28T00:40:03;8.4;;;5.9;;
36833;SDS011;48003;52.084;5.224;2023-04-28T00:43:16;8.31;;;5.3;;
36833;SDS011;48003;52.084;5.224;2023-04-28T00:44:52;8.31;;;5.11;;
36833;SDS011;48003;52.084;5.224;2023-04-28T00:46:29;8.71;;;5.2;;
36833;SDS011;48003;52.084;5.224;2023-04-28T00:49:45;8.5;;;4.7;;
36833;SDS011;48003;52.084;5.224;2023-04-28T00:51:22;9.21;;;5.11;;
36833;SDS011;48003;52.084;5.224;2023-04-28T00:52:58;9.0;;;5.11;;
36833;SDS011;48003;52.084;5.224;2023-04-28T00:54:35;7.3;;;5.4;;
36833;SDS011;48003;52.084;5.224;2023-04-28T00:57:48;7.8;;;4.8;;
36833;SDS011;48003;52.084;5.224;2023-04-28T00:59:26;10.0;;;5.11;;
36833;SDS011;48003;52.084;5.224;2023-04-28T01:01:02;6.9;;;4.7;;
36833;SDS011;48003;52.084;5.224;2023-04-28T01:04:16;9.81;;;5.11;;
36833;SDS011;48003;52.084;5.224;2023-04-28T01:05:55;7.1;;;5.2;;
36833;SDS011;48003;52.084;5.224;2023-04-28T01:07:32;7.3;;;5.0;;
36833;SDS011;48003;52.084;5.224;2023-04-28T01:09:08;8.31;;;4.8;;
36833;SDS011;48003;52.084;5.224;2023-04-28T01:12:20;7.8;;;4.5;;
36833;SDS011;48003;52.084;5.224;2023-04-28T01:13:57;7.6;;;4.61;;
36833;SDS011;48003;52.084;5.224;2023-04-28T01:18:47;8.0;;;4.41;;
36833;SDS011;48003;52.084;5.224;2023-04-28T01:20:23;9.31;;;4.5;;
36833;SDS011;48003;52.084;5.224;2023-04-28T01:21:59;8.0;;;4.61;;
36833;SDS011;48003;52.084;5.224;2023-04-28T01:25:11;6.5;;;4.5;;
36833;SDS011;48003;52.084;5.224;2023-04-28T01:26:47;8.1;;;5.0;;
36833;SDS011;48003;52.084;5.224;2023-04-28T01:28:23;6.7;;;4.5;;
36833;SDS011;48003;52.084;5.224;2023-04-28T01:29:59;7.9;;;4.2;;
36833;SDS011;48003;52.084;5.224;2023-04-28T01:33:12;8.4;;;4.3;;
36833;SDS011;48003;52.084;5.224;2023-04-28T01:34:48;6.5;;;4.5;;
36833;SDS011;48003;52.084;5.224;2023-04-28T01:36:25;6.0;;;4.3;;
36833;SDS011;48003;52.084;5.224;2023-04-28T01:39:37;7.0;;;4.41;;
36833;SDS011;48003;52.084;5.224;2023-04-28T01:41:13;7.5;;;4.5;;
36833;SDS011;48003;52.084;5.224;2023-04-28T01:46:02;7.1;;;4.61;;
36833;SDS011;48003;52.084;5.224;2023-04-28T01:47:38;10.21;;;4.3;;
36833;SDS011;48003;52.084;5.224;2023-04-28T01:49:14;6.5;;;4.41;;
36833;SDS011;48003;52.084;5.224;2023-04-28T01:52:26;7.2;;;4.41;;
36833;SDS011;48003;52.084;5.224;2023-04-28T01:54:02;8.81;;;4.61;;
36833;SDS011;48003;52.084;5.224;2023-04-28T01:55:38;6.5;;;4.41;;
36833;SDS011;48003;52.084;5.224;2023-04-28T01:57:14;7.0;;;4.2;;
36833;SDS011;48003;52.084;5.224;2023-04-28T02:00:27;8.6;;;4.5;;
36833;SDS011;48003;52.084;5.224;2023-04-28T02:02:03;7.0;;;4.5;;
36833;SDS011;48003;52.084;5.224;2023-04-28T02:03:39;6.8;;;4.61;;
36833;SDS011;48003;52.084;5.224;2023-04-28T02:06:51;6.4;;;4.1;;
36833;SDS011;48003;52.084;5.224;2023-04-28T02:08:27;5.9;;;4.0;;
36833;SDS011;48003;52.084;5.224;2023-04-28T02:10:04;7.0;;;4.3;;
36833;SDS011;48003;52.084;5.224;2023-04-28T02:13:17;7.8;;;4.3;;
36833;SDS011;48003;52.084;5.224;2023-04-28T02:14:53;6.9;;;4.5;;
36833;SDS011;48003;52.084;5.224;2023-04-28T02:16:29;8.2;;;4.3;;
36833;SDS011;48003;52.084;5.224;2023-04-28T02:19:41;7.0;;;4.3;;
36833;SDS011;48003;52.084;5.224;2023-04-28T02:21:17;8.0;;;4.5;;
36833;SDS011;48003;52.084;5.224;2023-04-28T02:22:53;8.0;;;4.41;;
36833;SDS011;48003;52.084;5.224;2023-04-28T02:24:29;7.6;;;4.3;;
36833;SDS011;48003;52.084;5.224;2023-04-28T02:27:45;6.4;;;4.0;;
36833;SDS011;48003;52.084;5.224;2023-04-28T02:29:21;6.1;;;4.1;;
36833;SDS011;48003;52.084;5.224;2023-04-28T02:31:12;5.8;;;4.2;;
36833;SDS011;48003;52.084;5.224;2023-04-28T02:32:49;7.5;;;3.9;;
36833;SDS011;48003;52.084;5.224;2023-04-28T02:36:02;5.8;;;3.8;;
36833;SDS011;48003;52.084;5.224;2023-04-28T02:37:40;7.5;;;4.2;;
36833;SDS011;48003;52.084;5.224;2023-04-28T02:39:15;5.8;;;4.1;;
36833;SDS011;48003;52.084;5.224;2023-04-28T02:42:33;5.8;;;4.2;;
36833;SDS011;48003;52.084;5.224;2023-04-28T02:44:09;7.3;;;4.41;;
36833;SDS011;48003;52.084;5.224;2023-04-28T02:45:45;7.8;;;4.7;;
36833;SDS011;48003;52.084;5.224;2023-04-28T02:48:57;7.7;;;4.1;;
36833;SDS011;48003;52.084;5.224;2023-04-28T02:50:33;6.4;;;4.3;;
36833;SDS011;48003;52.084;5.224;2023-04-28T02:52:09;6.8;;;4.2;;
36833;SDS011;48003;52.084;5.224;2023-04-28T02:53:46;7.2;;;4.7;;
36833;SDS011;48003;52.084;5.224;2023-04-28T02:56:58;8.4;;;4.41;;
36833;SDS011;48003;52.084;5.224;2023-04-28T02:58:34;8.0;;;4.41;;
36833;SDS011;48003;52.084;5.224;2023-04-28T03:00:11;7.1;;;4.1;;
36833;SDS011;48003;52.084;5.224;2023-04-28T03:03:24;7.1;;;3.9;;
36833;SDS011;48003;52.084;5.224;2023-04-28T03:05:01;6.9;;;4.5;;
36833;SDS011;48003;52.084;5.224;2023-04-28T03:06:37;6.8;;;4.41;;
36833;SDS011;48003;52.084;5.224;2023-04-28T03:09:49;9.1;;;4.7;;
36833;SDS011;48003;52.084;5.224;2023-04-28T03:11:25;8.6;;;4.61;;
36833;SDS011;48003;52.084;5.224;2023-04-28T03:13:01;7.0;;;4.2;;
36833;SDS011;48003;52.084;5.224;2023-04-28T03:14:37;7.9;;;4.8;;
36833;SDS011;48003;52.084;5.224;2023-04-28T03:17:50;7.3;;;4.61;;
36833;SDS011;48003;52.084;5.224;2023-04-28T03:19:25;9.1;;;4.61;;
36833;SDS011;48003;52.084;5.224;2023-04-28T03:21:02;7.1;;;4.0;;
36833;SDS011;48003;52.084;5.224;2023-04-28T03:24:14;7.5;;;4.5;;
36833;SDS011;48003;52.084;5.224;2023-04-28T03:25:50;7.6;;;4.61;;
36833;SDS011;48003;52.084;5.224;2023-04-28T03:27:26;7.0;;;4.41;;
36833;SDS011;48003;52.084;5.224;2023-04-28T03:30:38;6.4;;;4.7;;
36833;SDS011;48003;52.084;5.224;2023-04-28T03:32:14;7.7;;;4.61;;
36833;SDS011;48003;52.084;5.224;2023-04-28T03:33:51;6.1;;;4.2;;
36833;SDS011;48003;52.084;5.224;2023-04-28T03:37:03;8.9;;;4.7;;
36833;SDS011;48003;52.084;5.224;2023-04-28T03:38:39;6.5;;;4.41;;
36833;SDS011;48003;52.084;5.224;2023-04-28T03:40:15;7.6;;;4.3;;
36833;SDS011;48003;52.084;5.224;2023-04-28T03:41:51;6.6;;;4.41;;
36833;SDS011;48003;52.084;5.224;2023-04-28T03:45:04;7.3;;;4.5;;
36833;SDS011;48003;52.084;5.224;2023-04-28T03:46:41;5.6;;;4.3;;
36833;SDS011;48003;52.084;5.224;2023-04-28T03:48:17;7.7;;;4.41;;
36833;SDS011;48003;52.084;5.224;2023-04-28T03:51:29;9.4;;;4.41;;
36833;SDS011;48003;52.084;5.224;2023-04-28T03:53:05;6.9;;;4.41;;
36833;SDS011;48003;52.084;5.224;2023-04-28T03:54:41;8.2;;;4.41;;
36833;SDS011;48003;52.084;5.224;2023-04-28T03:57:54;7.1;;;4.91;;
36833;SDS011;48003;52.084;5.224;2023-04-28T03:59:31;7.9;;;4.7;;
36833;SDS011;48003;52.084;5.224;2023-04-28T04:01:07;7.7;;;4.7;;
36833;SDS011;48003;52.084;5.224;2023-04-28T04:02:43;9.5;;;4.7;;
36833;SDS011;48003;52.084;5.224;2023-04-28T04:05:55;7.7;;;4.7;;
36833;SDS011;48003;52.084;5.224;2023-04-28T04:07:31;6.5;;;4.61;;
36833;SDS011;48003;52.084;5.224;2023-04-28T04:09:07;9.0;;;4.5;;
36833;SDS011;48003;52.084;5.224;2023-04-28T04:12:19;6.9;;;4.41;;
36833;SDS011;48003;52.084;5.224;2023-04-28T04:13:56;7.4;;;4.7;;
36833;SDS011;48003;52.084;5.224;2023-04-28T04:15:32;8.1;;;4.7;;
36833;SDS011;48003;52.084;5.224;2023-04-28T04:18:44;8.2;;;4.91;;
36833;SDS011;48003;52.084;5.224;2023-04-28T04:20:21;7.8;;;4.61;;
36833;SDS011;48003;52.084;5.224;2023-04-28T04:21:57;10.1;;;4.3;;
36833;SDS011;48003;52.084;5.224;2023-04-28T04:25:10;7.1;;;4.8;;
36833;SDS011;48003;52.084;5.224;2023-04-28T04:26:46;6.7;;;4.41;;
36833;SDS011;48003;52.084;5.224;2023-04-28T04:28:22;5.7;;;4.7;;
36833;SDS011;48003;52.084;5.224;2023-04-28T04:29:58;7.1;;;4.5;;
36833;SDS011;48003;52.084;5.224;2023-04-28T04:33:10;7.4;;;4.91;;
36833;SDS011;48003;52.084;5.224;2023-04-28T04:34:46;7.4;;;4.8;;
36833;SDS011;48003;52.084;5.224;2023-04-28T04:36:22;6.3;;;4.3;;
36833;SDS011;48003;52.084;5.224;2023-04-28T04:39:34;8.0;;;4.7;;
36833;SDS011;48003;52.084;5.224;2023-04-28T04:41:11;8.81;;;4.7;;
36833;SDS011;48003;52.084;5.224;2023-04-28T04:42:47;9.4;;;5.2;;
36833;SDS011;48003;52.084;5.224;2023-04-28T04:45:59;9.21;;;4.61;;
36833;SDS011;48003;52.084;5.224;2023-04-28T04:47:35;7.1;;;4.61;;
36833;SDS011;48003;52.084;5.224;2023-04-28T04:49:11;6.2;;;4.61;;
36833;SDS011;48003;52.084;5.224;2023-04-28T04:52:23;8.81;;;5.3;;
36833;SDS011;48003;52.084;5.224;2023-04-28T04:54:00;7.5;;;5.11;;
36833;SDS011;48003;52.084;5.224;2023-04-28T04:55:36;8.1;;;5.11;;
36833;SDS011;48003;52.084;5.224;2023-04-28T04:57:12;7.7;;;5.0;;
36833;SDS011;48003;52.084;5.224;2023-04-28T05:00:27;7.8;;;5.2;;
36833;SDS011;48003;52.084;5.224;2023-04-28T05:02:04;8.71;;;5.0;;
36833;SDS011;48003;52.084;5.224;2023-04-28T05:03:40;10.3;;;5.11;;
36833;SDS011;48003;52.084;5.224;2023-04-28T05:06:52;5.4;;;4.5;;
36833;SDS011;48003;52.084;5.224;2023-04-28T05:08:28;9.0;;;5.3;;
36833;SDS011;48003;52.084;5.224;2023-04-28T05:10:04;9.31;;;5.11;;
36833;SDS011;48003;52.084;5.224;2023-04-28T05:13:17;8.31;;;5.0;;
36833;SDS011;48003;52.084;5.224;2023-04-28T05:14:53;13.0;;;5.6;;
36833;SDS011;48003;52.084;5.224;2023-04-28T05:18:06;10.0;;;5.5;;
36833;SDS011;48003;52.084;5.224;2023-04-28T05:21:18;8.9;;;5.9;;
36833;SDS011;48003;52.084;5.224;2023-04-28T05:22:54;7.6;;;5.4;;
36833;SDS011;48003;52.084;5.224;2023-04-28T05:24:30;8.81;;;5.8;;
36833;SDS011;48003;52.084;5.224;2023-04-28T05:27:42;9.9;;;5.8;;
36833;SDS011;48003;52.084;5.224;2023-04-28T05:29:18;10.4;;;6.2;;
36833;SDS011;48003;52.084;5.224;2023-04-28T05:30:54;9.0;;;6.4;;
36833;SDS011;48003;52.084;5.224;2023-04-28T05:34:09;11.7;;;6.2;;
36833;SDS011;48003;52.084;5.224;2023-04-28T05:35:45;9.81;;;6.5;;
36833;SDS011;48003;52.084;5.224;2023-04-28T05:37:21;8.71;;;5.8;;
36833;SDS011;48003;52.084;5.224;2023-04-28T05:38:58;10.1;;;6.6;;
36833;SDS011;48003;52.084;5.224;2023-04-28T05:42:10;9.1;;;6.4;;
36833;SDS011;48003;52.084;5.224;2023-04-28T05:43:47;10.6;;;7.0;;
36833;SDS011;48003;52.084;5.224;2023-04-28T05:45:23;11.7;;;7.1;;
36833;SDS011;48003;52.084;5.224;2023-04-28T05:48:36;12.1;;;7.6;;
36833;SDS011;48003;52.084;5.224;2023-04-28T05:50:13;11.7;;;7.8;;
36833;SDS011;48003;52.084;5.224;2023-04-28T05:51:49;11.5;;;8.31;;
36833;SDS011;48003;52.084;5.224;2023-04-28T05:55:02;12.4;;;8.4;;
36833;SDS011;48003;52.084;5.224;2023-04-28T05:56:38;12.7;;;8.4;;
36833;SDS011;48003;52.084;5.224;2023-04-28T05:58:14;12.2;;;8.5;;
36833;SDS011;48003;52.084;5.224;2023-04-28T06:01:26;11.8;;;8.4;;
36833;SDS011;48003;52.084;5.224;2023-04-28T06:03:04;11.5;;;8.4;;
36833;SDS011;48003;52.084;5.224;2023-04-28T06:04:40;12.7;;;8.71;;
36833;SDS011;48003;52.084;5.224;2023-04-28T06:06:16;14.4;;;8.81;;
36833;SDS011;48003;52.084;5.224;2023-04-28T06:11:05;13.1;;;8.6;;
36833;SDS011;48003;52.084;5.224;2023-04-28T06:12:41;13.3;;;8.31;;
36833;SDS011;48003;52.084;5.224;2023-04-28T06:15:53;11.8;;;8.2;;
36833;SDS011;48003;52.084;5.224;2023-04-28T06:17:29;13.2;;;8.9;;
36833;SDS011;48003;52.084;5.224;2023-04-28T06:19:05;12.9;;;8.71;;
36833;SDS011;48003;52.084;5.224;2023-04-28T06:22:18;12.8;;;9.21;;
36833;SDS011;48003;52.084;5.224;2023-04-28T06:23:54;14.0;;;9.21;;
36833;SDS011;48003;52.084;5.224;2023-04-28T06:25:30;14.3;;;9.31;;
36833;SDS011;48003;52.084;5.224;2023-04-28T06:27:06;12.9;;;8.81;;
36833;SDS011;48003;52.084;5.224;2023-04-28T06:30:19;14.6;;;9.0;;
36833;SDS011;48003;52.084;5.224;2023-04-28T06:31:57;14.2;;;9.5;;
36833;SDS011;48003;52.084;5.224;2023-04-28T06:33:33;13.7;;;9.1;;
36833;SDS011;48003;52.084;5.224;2023-04-28T06:36:46;14.3;;;10.1;;
36833;SDS011;48003;52.084;5.224;2023-04-28T06:38:22;12.8;;;9.81;;
36833;SDS011;48003;52.084;5.224;2023-04-28T06:39:58;13.2;;;10.7;;
36833;SDS011;48003;52.084;5.224;2023-04-28T06:43:10;12.5;;;9.71;;
36833;SDS011;48003;52.084;5.224;2023-04-28T06:44:46;13.5;;;10.1;;
36833;SDS011;48003;52.084;5.224;2023-04-28T06:46:22;13.4;;;10.1;;
36833;SDS011;48003;52.084;5.224;2023-04-28T06:47:59;13.4;;;10.7;;
36833;SDS011;48003;52.084;5.224;2023-04-28T06:51:10;15.5;;;10.4;;
36833;SDS011;48003;52.084;5.224;2023-04-28T06:52:46;15.5;;;11.1;;
36833;SDS011;48003;52.084;5.224;2023-04-28T06:54:22;16.3;;;11.0;;
36833;SDS011;48003;52.084;5.224;2023-04-28T06:57:35;13.6;;;10.9;;
36833;SDS011;48003;52.084;5.224;2023-04-28T06:59:11;14.3;;;11.1;;
36833;SDS011;48003;52.084;5.224;2023-04-28T07:00:48;16.3;;;11.8;;
36833;SDS011;48003;52.084;5.224;2023-04-28T07:04:00;13.5;;;11.3;;
36833;SDS011;48003;52.084;5.224;2023-04-28T07:05:36;15.0;;;11.1;;
36833;SDS011;48003;52.084;5.224;2023-04-28T07:07:12;15.1;;;10.5;;
36833;SDS011;48003;52.084;5.224;2023-04-28T07:10:24;17.5;;;11.8;;
36833;SDS011;48003;52.084;5.224;2023-04-28T07:12:01;16.4;;;11.8;;
36833;SDS011;48003;52.084;5.224;2023-04-28T07:13:38;17.41;;;11.6;;
36833;SDS011;48003;52.084;5.224;2023-04-28T07:15:14;16.3;;;11.6;;
36833;SDS011;48003;52.084;5.224;2023-04-28T07:18:26;15.1;;;11.5;;
36833;SDS011;48003;52.084;5.224;2023-04-28T07:20:02;16.0;;;11.3;;
36833;SDS011;48003;52.084;5.224;2023-04-28T07:21:39;17.0;;;12.1;;
36833;SDS011;48003;52.084;5.224;2023-04-28T07:24:52;15.8;;;11.6;;
36833;SDS011;48003;52.084;5.224;2023-04-28T07:26:29;17.3;;;11.6;;
36833;SDS011;48003;52.084;5.224;2023-04-28T07:28:05;19.2;;;11.7;;
36833;SDS011;48003;52.084;5.224;2023-04-28T07:31:18;17.0;;;12.1;;
36833;SDS011;48003;52.084;5.224;2023-04-28T07:32:54;16.0;;;12.2;;
36833;SDS011;48003;52.084;5.224;2023-04-28T07:34:30;16.0;;;12.7;;
36833;SDS011;48003;52.084;5.224;2023-04-28T07:36:06;16.61;;;12.3;;
36833;SDS011;48003;52.084;5.224;2023-04-28T07:39:19;18.2;;;13.5;;
36833;SDS011;48003;52.084;5.224;2023-04-28T07:40:55;16.4;;;12.8;;
36833;SDS011;48003;52.084;5.224;2023-04-28T07:42:31;14.9;;;12.1;;
36833;SDS011;48003;52.084;5.224;2023-04-28T07:45:43;16.9;;;12.5;;
36833;SDS011;48003;52.084;5.224;2023-04-28T07:47:19;17.5;;;12.9;;
36833;SDS011;48003;52.084;5.224;2023-04-28T07:48:55;15.5;;;12.1;;
36833;SDS011;48003;52.084;5.224;2023-04-28T07:52:09;17.5;;;13.2;;
36833;SDS011;48003;52.084;5.224;2023-04-28T07:53:45;18.41;;;12.2;;
36833;SDS011;48003;52.084;5.224;2023-04-28T07:55:21;18.11;;;12.8;;
36833;SDS011;48003;52.084;5.224;2023-04-28T07:58:33;16.11;;;12.4;;
36833;SDS011;48003;52.084;5.224;2023-04-28T08:00:09;15.2;;;12.0;;
36833;SDS011;48003;52.084;5.224;2023-04-28T08:01:46;17.41;;;12.9;;
36833;SDS011;48003;52.084;5.224;2023-04-28T08:03:22;15.9;;;13.0;;
36833;SDS011;48003;52.084;5.224;2023-04-28T08:06:35;18.41;;;13.3;;
36833;SDS011;48003;52.084;5.224;2023-04-28T08:08:11;19.11;;;13.9;;
36833;SDS011;48003;52.084;5.224;2023-04-28T08:09:48;17.41;;;14.3;;
36833;SDS011;48003;52.084;5.224;2023-04-28T08:13:00;17.41;;;14.2;;
36833;SDS011;48003;52.084;5.224;2023-04-28T08:14:36;18.7;;;14.1;;
36833;SDS011;48003;52.084;5.224;2023-04-28T08:16:13;18.5;;;13.9;;
36833;SDS011;48003;52.084;5.224;2023-04-28T08:19:26;17.8;;;14.3;;
36833;SDS011;48003;52.084;5.224;2023-04-28T08:21:02;21.0;;;14.6;;
36833;SDS011;48003;52.084;5.224;2023-04-28T08:22:38;19.11;;;14.9;;
36833;SDS011;48003;52.084;5.224;2023-04-28T08:24:14;19.3;;;14.3;;
36833;SDS011;48003;52.084;5.224;2023-04-28T08:27:26;18.91;;;15.3;;
36833;SDS011;48003;52.084;5.224;2023-04-28T08:29:03;20.41;;;16.0;;
36833;SDS011;48003;52.084;5.224;2023-04-28T08:30:39;20.5;;;15.5;;
36833;SDS011;48003;52.084;5.224;2023-04-28T08:33:51;20.0;;;15.4;;
36833;SDS011;48003;52.084;5.224;2023-04-28T08:35:27;23.2;;;16.3;;
36833;SDS011;48003;52.084;5.224;2023-04-28T08:37:05;20.7;;;16.3;;
36833;SDS011;48003;52.084;5.224;2023-04-28T08:40:17;20.41;;;16.7;;
36833;SDS011;48003;52.084;5.224;2023-04-28T08:41:55;22.0;;;17.3;;
36833;SDS011;48003;52.084;5.224;2023-04-28T08:43:31;20.3;;;16.8;;
36833;SDS011;48003;52.084;5.224;2023-04-28T08:45:08;24.4;;;17.61;;
36833;SDS011;48003;52.084;5.224;2023-04-28T08:48:28;21.6;;;17.0;;
36833;SDS011;48003;52.084;5.224;2023-04-28T08:50:13;22.1;;;17.7;;
36833;SDS011;48003;52.084;5.224;2023-04-28T08:51:54;24.9;;;17.8;;
36833;SDS011;48003;52.084;5.224;2023-04-28T08:53:36;21.5;;;17.7;;
36833;SDS011;48003;52.084;5.224;2023-04-28T08:56:51;21.2;;;17.41;;
36833;SDS011;48003;52.084;5.224;2023-04-28T08:58:27;21.4;;;18.11;;
36833;SDS011;48003;52.084;5.224;2023-04-28T09:03:16;23.9;;;18.41;;
36833;SDS011;48003;52.084;5.224;2023-04-28T09:04:52;22.2;;;18.8;;
36833;SDS011;48003;52.084;5.224;2023-04-28T09:06:30;22.6;;;17.7;;
36833;SDS011;48003;52.084;5.224;2023-04-28T09:08:08;21.7;;;17.2;;
36833;SDS011;48003;52.084;5.224;2023-04-28T09:11:20;22.0;;;18.2;;
36833;SDS011;48003;52.084;5.224;2023-04-28T09:12:56;22.0;;;18.2;;
36833;SDS011;48003;52.084;5.224;2023-04-28T09:14:32;21.7;;;17.7;;
36833;SDS011;48003;52.084;5.224;2023-04-28T09:17:47;20.9;;;16.5;;
36833;SDS011;48003;52.084;5.224;2023-04-28T09:19:27;20.2;;;17.11;;
36833;SDS011;48003;52.084;5.224;2023-04-28T09:21:08;19.5;;;16.61;;
36833;SDS011;48003;52.084;5.224;2023-04-28T09:24:24;18.5;;;16.0;;
36833;SDS011;48003;52.084;5.224;2023-04-28T09:26:06;19.0;;;16.0;;
36833;SDS011;48003;52.084;5.224;2023-04-28T09:27:43;19.91;;;15.9;;
36833;SDS011;48003;52.084;5.224;2023-04-28T09:29:19;19.5;;;17.0;;
36833;SDS011;48003;52.084;5.224;2023-04-28T09:32:31;19.91;;;16.8;;
36833;SDS011;48003;52.084;5.224;2023-04-28T09:34:07;20.41;;;15.9;;
36833;SDS011;48003;52.084;5.224;2023-04-28T09:35:44;18.7;;;15.4;;
36833;SDS011;48003;52.084;5.224;2023-04-28T09:38:58;17.8;;;14.7;;
36833;SDS011;48003;52.084;5.224;2023-04-28T09:40:48;18.5;;;15.7;;
36833;SDS011;48003;52.084;5.224;2023-04-28T09:42:29;17.3;;;14.9;;
36833;SDS011;48003;52.084;5.224;2023-04-28T09:44:09;15.6;;;13.4;;
36833;SDS011;48003;52.084;5.224;2023-04-28T09:47:22;17.91;;;14.8;;
36833;SDS011;48003;52.084;5.224;2023-04-28T09:48:59;17.91;;;16.0;;
36833;SDS011;48003;52.084;5.224;2023-04-28T09:50:38;18.0;;;15.8;;
36833;SDS011;48003;52.084;5.224;2023-04-28T09:52:15;17.2;;;14.5;;
36833;SDS011;48003;52.084;5.224;2023-04-28T09:55:28;15.6;;;13.9;;
36833;SDS011;48003;52.084;5.224;2023-04-28T09:57:08;14.8;;;13.2;;
36833;SDS011;48003;52.084;5.224;2023-04-28T09:58:45;15.4;;;13.8;;
36833;SDS011;48003;52.084;5.224;2023-04-28T10:02:02;16.2;;;14.5;;
36833;SDS011;48003;52.084;5.224;2023-04-28T10:03:40;16.3;;;14.6;;
36833;SDS011;48003;52.084;5.224;2023-04-28T10:05:17;15.4;;;13.6;;
36833;SDS011;48003;52.084;5.224;2023-04-28T10:06:55;16.9;;;14.2;;
36833;SDS011;48003;52.084;5.224;2023-04-28T10:10:09;17.5;;;15.6;;
36833;SDS011;48003;52.084;5.224;2023-04-28T10:11:46;17.2;;;15.4;;
36833;SDS011;48003;52.084;5.224;2023-04-28T10:13:23;15.7;;;14.1;;
36833;SDS011;48003;52.084;5.224;2023-04-28T10:16:37;16.5;;;14.2;;
36833;SDS011;48003;52.084;5.224;2023-04-28T10:18:13;16.0;;;14.3;;
36833;SDS011;48003;52.084;5.224;2023-04-28T10:19:51;16.11;;;14.4;;
36833;SDS011;48003;52.084;5.224;2023-04-28T10:21:28;16.0;;;14.3;;
36833;SDS011;48003;52.084;5.224;2023-04-28T10:26:02;16.11;;;14.4;;
36833;SDS011;48003;52.084;5.224;2023-04-28T10:27:45;17.0;;;14.8;;
36833;SDS011;48003;52.084;5.224;2023-04-28T10:31:08;16.8;;;14.8;;
36833;SDS011;48003;52.084;5.224;2023-04-28T10:32:45;17.0;;;14.8;;
36833;SDS011;48003;52.084;5.224;2023-04-28T10:34:23;17.5;;;15.3;;
36833;SDS011;48003;52.084;5.224;2023-04-28T10:38:08;18.0;;;15.7;;
36833;SDS011;48003;52.084;5.224;2023-04-28T10:40:49;18.7;;;16.3;;
36833;SDS011;48003;52.084;5.224;2023-04-28T10:42:50;18.8;;;16.11;;
36833;SDS011;48003;52.084;5.224;2023-04-28T10:44:41;20.0;;;17.5;;
36833;SDS011;48003;52.084;5.224;2023-04-28T10:48:00;20.7;;;16.3;;
36833;SDS011;48003;52.084;5.224;2023-04-28T10:50:09;18.61;;;15.6;;
36833;SDS011;48003;52.084;5.224;2023-04-28T10:51:46;19.8;;;16.8;;
36833;SDS011;48003;52.084;5.224;2023-04-28T10:53:40;22.0;;;16.7;;
36833;SDS011;48003;52.084;5.224;2023-04-28T10:55:43;20.41;;;17.2;;
36833;SDS011;48003;52.084;5.224;2023-04-28T10:57:20;19.8;;;16.3;;
36833;SDS011;48003;52.084;5.224;2023-04-28T11:00:33;22.1;;;17.0;;
36833;SDS011;48003;52.084;5.224;2023-04-28T11:02:41;22.4;;;17.8;;
36833;SDS011;48003;52.084;5.224;2023-04-28T11:04:17;19.41;;;16.7;;
36833;SDS011;48003;52.084;5.224;2023-04-28T11:06:25;20.9;;;17.0;;
36833;SDS011;48003;52.084;5.224;2023-04-28T11:08:33;19.61;;;16.11;;
36833;SDS011;48003;52.084;5.224;2023-04-28T11:10:08;18.11;;;14.9;;
36833;SDS011;48003;52.084;5.224;2023-04-28T11:12:02;15.7;;;13.4;;
36833;SDS011;48003;52.084;5.224;2023-04-28T11:13:40;18.61;;;14.6;;
36833;SDS011;48003;52.084;5.224;2023-04-28T11:18:32;18.91;;;13.6;;
36833;SDS011;48003;52.084;5.224;2023-04-28T11:20:23;17.11;;;12.6;;
36833;SDS011;48003;52.084;5.224;2023-04-28T11:22:02;16.7;;;12.7;;
36833;SDS011;48003;52.084;5.224;2023-04-28T11:25:27;14.5;;;11.5;;
36833;SDS011;48003;52.084;5.224;2023-04-28T11:27:03;15.5;;;11.6;;
36833;SDS011;48003;52.084;5.224;2023-04-28T11:28:48;14.7;;;11.0;;
36833;SDS011;48003;52.084;5.224;2023-04-28T11:30:26;14.9;;;10.7;;
36833;SDS011;48003;52.084;5.224;2023-04-28T11:33:39;13.4;;;10.4;;
36833;SDS011;48003;52.084;5.224;2023-04-28T11:35:17;14.6;;;10.6;;
36833;SDS011;48003;52.084;5.224;2023-04-28T11:36:53;12.5;;;9.5;;
36833;SDS011;48003;52.084;5.224;2023-04-28T11:40:18;13.5;;;9.81;;
36833;SDS011;48003;52.084;5.224;2023-04-28T11:41:54;13.3;;;9.4;;
36833;SDS011;48003;52.084;5.224;2023-04-28T11:43:31;14.6;;;9.1;;
36833;SDS011;48003;52.084;5.224;2023-04-28T11:45:07;10.9;;;8.5;;
36833;SDS011;48003;52.084;5.224;2023-04-28T11:48:25;12.8;;;8.81;;
36833;SDS011;48003;52.084;5.224;2023-04-28T11:50:02;13.5;;;9.5;;
36833;SDS011;48003;52.084;5.224;2023-04-28T11:51:38;11.1;;;8.0;;
36833;SDS011;48003;52.084;5.224;2023-04-28T11:54:53;9.4;;;6.4;;
36833;SDS011;48003;52.084;5.224;2023-04-28T11:56:35;9.6;;;5.6;;
36833;SDS011;48003;52.084;5.224;2023-04-28T11:58:17;6.7;;;5.11;;
36833;SDS011;48003;52.084;5.224;2023-04-28T12:00:10;7.6;;;4.7;;
36833;SDS011;48003;52.084;5.224;2023-04-28T12:01:48;8.6;;;4.5;;
36833;SDS011;48003;52.084;5.224;2023-04-28T12:05:04;6.0;;;4.41;;
36833;SDS011;48003;52.084;5.224;2023-04-28T12:06:41;7.5;;;4.0;;
36833;SDS011;48003;52.084;5.224;2023-04-28T12:08:26;7.1;;;4.7;;
36833;SDS011;48003;52.084;5.224;2023-04-28T12:11:52;7.2;;;4.8;;
36833;SDS011;48003;52.084;5.224;2023-04-28T12:13:30;6.6;;;4.1;;
36833;SDS011;48003;52.084;5.224;2023-04-28T12:15:07;5.11;;;3.6;;
36833;SDS011;48003;52.084;5.224;2023-04-28T12:16:45;5.0;;;3.6;;
36833;SDS011;48003;52.084;5.224;2023-04-28T12:19:57;4.8;;;2.6;;
36833;SDS011;48003;52.084;5.224;2023-04-28T12:21:35;3.0;;;1.9;;
36833;SDS011;48003;52.084;5.224;2023-04-28T12:23:12;3.9;;;2.21;;
36833;SDS011;48003;52.084;5.224;2023-04-28T12:25:01;3.0;;;2.31;;
36833;SDS011;48003;52.084;5.224;2023-04-28T12:28:14;3.9;;;2.21;;
36833;SDS011;48003;52.084;5.224;2023-04-28T12:29:51;3.7;;;2.31;;
36833;SDS011;48003;52.084;5.224;2023-04-28T12:31:27;3.1;;;2.31;;
36833;SDS011;48003;52.084;5.224;2023-04-28T12:34:39;4.1;;;2.6;;
36833;SDS011;48003;52.084;5.224;2023-04-28T12:36:17;3.1;;;2.31;;
36833;SDS011;48003;52.084;5.224;2023-04-28T12:37:53;3.5;;;1.9;;
36833;SDS011;48003;52.084;5.224;2023-04-28T12:39:31;2.6;;;2.21;;
36833;SDS011;48003;52.084;5.224;2023-04-28T12:42:44;3.0;;;2.1;;
36833;SDS011;48003;52.084;5.224;2023-04-28T12:44:20;2.8;;;2.4;;
36833;SDS011;48003;52.084;5.224;2023-04-28T12:45:56;3.9;;;3.2;;
36833;SDS011;48003;52.084;5.224;2023-04-28T12:49:09;4.5;;;3.7;;
36833;SDS011;48003;52.084;5.224;2023-04-28T12:50:45;4.8;;;3.6;;
36833;SDS011;48003;52.084;5.224;2023-04-28T12:52:21;4.7;;;4.3;;
36833;SDS011;48003;52.084;5.224;2023-04-28T12:55:33;4.41;;;4.0;;
36833;SDS011;48003;52.084;5.224;2023-04-28T12:57:09;4.3;;;3.9;;
36833;SDS011;48003;52.084;5.224;2023-04-28T12:58:45;4.3;;;3.9;;
36833;SDS011;48003;52.084;5.224;2023-04-28T13:00:22;4.61;;;4.2;;